sensor_id;sensor_type;location;lat;lon;timestamp;P1;durP1;ratioP1;P2;durP2;ratioP2
63902;SDS011;50072;50.678;13.938;2024-03-02T00:01:37;108.50;;;39.65;;
63902;SDS011;50072;50.678;13.938;2024-03-02T00:04:03;107.47;;;40.83;;
63902;SDS011;50072;50.678;13.938;2024-03-02T00:06:33;111.57;;;39.78;;
63902;SDS011;50072;50.678;13.938;2024-03-02T00:09:00;111.43;;;40.70;;
63902;SDS011;50072;50.678;13.938;2024-03-02T00:11:33;109.53;;;39.95;;
63902;SDS011;50072;50.678;13.938;2024-03-02T00:14:00;110.15;;;40.05;;
63902;SDS011;50072;50.678;13.938;2024-03-02T00:16:30;113.57;;;41.15;;
63902;SDS011;50072;50.678;13.938;2024-03-02T00:19:01;102.57;;;40.15;;
63902;SDS011;50072;50.678;13.938;2024-03-02T00:21:28;101.57;;;38.05;;
63902;SDS011;50072;50.678;13.938;2024-03-02T00:24:06;99.78;;;37.58;;
63902;SDS011;50072;50.678;13.938;2024-03-02T00:26:56;101.15;;;37.83;;
63902;SDS011;50072;50.678;13.938;2024-03-02T00:29:22;101.82;;;37.50;;
63902;SDS011;50072;50.678;13.938;2024-03-02T00:31:48;110.38;;;41.03;;
63902;SDS011;50072;50.678;13.938;2024-03-02T00:34:14;123.30;;;45.15;;
63902;SDS011;50072;50.678;13.938;2024-03-02T00:36:44;115.72;;;42.33;;
63902;SDS011;50072;50.678;13.938;2024-03-02T00:39:12;114.13;;;40.60;;
63902;SDS011;50072;50.678;13.938;2024-03-02T00:41:40;109.75;;;39.15;;
63902;SDS011;50072;50.678;13.938;2024-03-02T00:44:07;113.53;;;39.13;;
63902;SDS011;50072;50.678;13.938;2024-03-02T00:46:40;95.22;;;37.10;;
63902;SDS011;50072;50.678;13.938;2024-03-02T00:51:46;109.78;;;38.88;;
63902;SDS011;50072;50.678;13.938;2024-03-02T00:54:20;104.47;;;39.13;;
63902;SDS011;50072;50.678;13.938;2024-03-02T00:56:52;108.95;;;39.58;;
63902;SDS011;50072;50.678;13.938;2024-03-02T00:59:20;97.43;;;36.65;;
63902;SDS011;50072;50.678;13.938;2024-03-02T01:01:48;99.18;;;38.95;;
63902;SDS011;50072;50.678;13.938;2024-03-02T01:04:14;94.97;;;38.70;;
63902;SDS011;50072;50.678;13.938;2024-03-02T01:06:43;103.70;;;37.15;;
63902;SDS011;50072;50.678;13.938;2024-03-02T01:09:11;94.95;;;38.20;;
63902;SDS011;50072;50.678;13.938;2024-03-02T01:11:40;113.05;;;41.00;;
63902;SDS011;50072;50.678;13.938;2024-03-02T01:14:08;101.32;;;38.90;;
63902;SDS011;50072;50.678;13.938;2024-03-02T01:16:37;99.18;;;37.00;;
63902;SDS011;50072;50.678;13.938;2024-03-02T01:21:38;104.18;;;38.03;;
63902;SDS011;50072;50.678;13.938;2024-03-02T01:24:04;100.13;;;36.95;;
63902;SDS011;50072;50.678;13.938;2024-03-02T01:26:30;95.38;;;36.70;;
63902;SDS011;50072;50.678;13.938;2024-03-02T01:31:28;94.82;;;36.58;;
63902;SDS011;50072;50.678;13.938;2024-03-02T01:33:54;104.22;;;37.63;;
63902;SDS011;50072;50.678;13.938;2024-03-02T01:38:53;89.50;;;36.38;;
63902;SDS011;50072;50.678;13.938;2024-03-02T01:43:55;93.75;;;35.97;;
63902;SDS011;50072;50.678;13.938;2024-03-02T01:49:00;97.35;;;37.08;;
63902;SDS011;50072;50.678;13.938;2024-03-02T01:51:26;98.47;;;37.45;;
63902;SDS011;50072;50.678;13.938;2024-03-02T01:53:53;102.13;;;38.03;;
63902;SDS011;50072;50.678;13.938;2024-03-02T01:56:27;98.47;;;39.22;;
63902;SDS011;50072;50.678;13.938;2024-03-02T01:58:54;94.88;;;37.20;;
63902;SDS011;50072;50.678;13.938;2024-03-02T02:01:27;96.63;;;37.83;;
63902;SDS011;50072;50.678;13.938;2024-03-02T02:03:54;93.78;;;36.42;;
63902;SDS011;50072;50.678;13.938;2024-03-02T02:06:21;100.15;;;37.85;;
63902;SDS011;50072;50.678;13.938;2024-03-02T02:08:47;93.78;;;36.72;;
63902;SDS011;50072;50.678;13.938;2024-03-02T02:11:16;81.07;;;35.00;;
63902;SDS011;50072;50.678;13.938;2024-03-02T02:13:43;97.32;;;36.83;;
63902;SDS011;50072;50.678;13.938;2024-03-02T02:16:09;95.05;;;36.47;;
63902;SDS011;50072;50.678;13.938;2024-03-02T02:18:35;94.15;;;37.30;;
63902;SDS011;50072;50.678;13.938;2024-03-02T02:21:03;98.85;;;39.08;;
63902;SDS011;50072;50.678;13.938;2024-03-02T02:23:29;103.55;;;40.05;;
63902;SDS011;50072;50.678;13.938;2024-03-02T02:25:59;109.40;;;38.28;;
63902;SDS011;50072;50.678;13.938;2024-03-02T02:28:25;92.63;;;37.50;;
63902;SDS011;50072;50.678;13.938;2024-03-02T02:30:51;89.68;;;36.38;;
63902;SDS011;50072;50.678;13.938;2024-03-02T02:33:18;104.65;;;39.20;;
63902;SDS011;50072;50.678;13.938;2024-03-02T02:35:44;107.28;;;39.22;;
63902;SDS011;50072;50.678;13.938;2024-03-02T02:38:09;101.03;;;38.00;;
63902;SDS011;50072;50.678;13.938;2024-03-02T02:40:36;99.47;;;37.80;;
63902;SDS011;50072;50.678;13.938;2024-03-02T02:43:04;107.30;;;39.55;;
63902;SDS011;50072;50.678;13.938;2024-03-02T02:45:31;103.57;;;39.45;;
63902;SDS011;50072;50.678;13.938;2024-03-02T02:47:58;91.40;;;37.05;;
63902;SDS011;50072;50.678;13.938;2024-03-02T02:50:28;88.25;;;35.08;;
63902;SDS011;50072;50.678;13.938;2024-03-02T02:52:57;87.43;;;34.20;;
63902;SDS011;50072;50.678;13.938;2024-03-02T02:55:25;83.75;;;34.03;;
63902;SDS011;50072;50.678;13.938;2024-03-02T02:57:58;85.57;;;34.35;;
63902;SDS011;50072;50.678;13.938;2024-03-02T03:00:24;82.55;;;35.00;;
63902;SDS011;50072;50.678;13.938;2024-03-02T03:02:49;94.40;;;35.67;;
63902;SDS011;50072;50.678;13.938;2024-03-02T03:05:16;97.13;;;36.05;;
63902;SDS011;50072;50.678;13.938;2024-03-02T03:07:44;83.72;;;34.20;;
63902;SDS011;50072;50.678;13.938;2024-03-02T03:10:11;96.10;;;36.45;;
63902;SDS011;50072;50.678;13.938;2024-03-02T03:12:38;101.47;;;37.13;;
63902;SDS011;50072;50.678;13.938;2024-03-02T03:15:07;97.82;;;35.65;;
63902;SDS011;50072;50.678;13.938;2024-03-02T03:17:40;91.07;;;34.80;;
63902;SDS011;50072;50.678;13.938;2024-03-02T03:20:06;92.97;;;36.50;;
63902;SDS011;50072;50.678;13.938;2024-03-02T03:22:37;93.45;;;35.38;;
63902;SDS011;50072;50.678;13.938;2024-03-02T03:25:04;86.80;;;34.20;;
63902;SDS011;50072;50.678;13.938;2024-03-02T03:27:31;96.53;;;34.47;;
63902;SDS011;50072;50.678;13.938;2024-03-02T03:29:58;94.40;;;35.53;;
63902;SDS011;50072;50.678;13.938;2024-03-02T03:32:24;94.97;;;34.85;;
63902;SDS011;50072;50.678;13.938;2024-03-02T03:34:50;91.22;;;35.90;;
63902;SDS011;50072;50.678;13.938;2024-03-02T03:37:17;91.85;;;34.63;;
63902;SDS011;50072;50.678;13.938;2024-03-02T03:39:44;97.90;;;35.35;;
63902;SDS011;50072;50.678;13.938;2024-03-02T03:42:11;94.40;;;34.65;;
63902;SDS011;50072;50.678;13.938;2024-03-02T03:47:08;95.85;;;35.90;;
63902;SDS011;50072;50.678;13.938;2024-03-02T03:49:34;100.65;;;36.35;;
63902;SDS011;50072;50.678;13.938;2024-03-02T03:54:40;104.50;;;36.40;;
63902;SDS011;50072;50.678;13.938;2024-03-02T03:57:08;100.78;;;35.60;;
63902;SDS011;50072;50.678;13.938;2024-03-02T03:59:34;93.18;;;34.50;;
63902;SDS011;50072;50.678;13.938;2024-03-02T04:02:00;90.80;;;35.63;;
63902;SDS011;50072;50.678;13.938;2024-03-02T04:04:27;91.55;;;35.78;;
63902;SDS011;50072;50.678;13.938;2024-03-02T04:06:53;96.45;;;36.25;;
63902;SDS011;50072;50.678;13.938;2024-03-02T04:09:20;87.45;;;34.58;;
63902;SDS011;50072;50.678;13.938;2024-03-02T04:11:45;89.90;;;33.92;;
63902;SDS011;50072;50.678;13.938;2024-03-02T04:14:13;93.38;;;37.67;;
63902;SDS011;50072;50.678;13.938;2024-03-02T04:16:40;88.95;;;35.28;;
63902;SDS011;50072;50.678;13.938;2024-03-02T04:19:08;93.07;;;35.47;;
63902;SDS011;50072;50.678;13.938;2024-03-02T04:21:37;102.53;;;35.50;;
63902;SDS011;50072;50.678;13.938;2024-03-02T04:24:03;101.18;;;37.30;;
63902;SDS011;50072;50.678;13.938;2024-03-02T04:26:30;93.40;;;36.70;;
63902;SDS011;50072;50.678;13.938;2024-03-02T04:28:56;92.63;;;35.08;;
63902;SDS011;50072;50.678;13.938;2024-03-02T04:31:23;89.72;;;34.10;;
63902;SDS011;50072;50.678;13.938;2024-03-02T04:33:49;94.72;;;35.20;;
63902;SDS011;50072;50.678;13.938;2024-03-02T04:36:19;90.75;;;34.88;;
63902;SDS011;50072;50.678;13.938;2024-03-02T04:38:46;93.65;;;35.60;;
63902;SDS011;50072;50.678;13.938;2024-03-02T04:41:12;82.55;;;32.50;;
63902;SDS011;50072;50.678;13.938;2024-03-02T04:43:38;81.32;;;32.05;;
63902;SDS011;50072;50.678;13.938;2024-03-02T04:46:14;88.20;;;33.83;;
63902;SDS011;50072;50.678;13.938;2024-03-02T04:48:40;89.28;;;34.60;;
63902;SDS011;50072;50.678;13.938;2024-03-02T04:51:06;102.05;;;35.92;;
63902;SDS011;50072;50.678;13.938;2024-03-02T04:53:32;96.72;;;34.17;;
63902;SDS011;50072;50.678;13.938;2024-03-02T04:55:59;86.68;;;34.28;;
63902;SDS011;50072;50.678;13.938;2024-03-02T05:01:24;110.90;;;39.72;;
63902;SDS011;50072;50.678;13.938;2024-03-02T05:03:51;101.95;;;38.10;;
63902;SDS011;50072;50.678;13.938;2024-03-02T05:06:22;100.38;;;37.65;;
63902;SDS011;50072;50.678;13.938;2024-03-02T05:11:20;93.82;;;34.25;;
63902;SDS011;50072;50.678;13.938;2024-03-02T05:14:15;94.88;;;34.97;;
63902;SDS011;50072;50.678;13.938;2024-03-02T05:16:47;84.65;;;33.47;;
63902;SDS011;50072;50.678;13.938;2024-03-02T05:19:14;83.68;;;32.72;;
63902;SDS011;50072;50.678;13.938;2024-03-02T05:21:40;90.03;;;33.97;;
63902;SDS011;50072;50.678;13.938;2024-03-02T05:24:06;90.43;;;33.90;;
63902;SDS011;50072;50.678;13.938;2024-03-02T05:26:32;89.35;;;34.55;;
63902;SDS011;50072;50.678;13.938;2024-03-02T05:28:59;85.95;;;34.03;;
63902;SDS011;50072;50.678;13.938;2024-03-02T05:31:25;95.32;;;35.83;;
63902;SDS011;50072;50.678;13.938;2024-03-02T05:33:56;92.60;;;34.75;;
63902;SDS011;50072;50.678;13.938;2024-03-02T05:36:22;96.05;;;33.50;;
63902;SDS011;50072;50.678;13.938;2024-03-02T05:38:48;87.13;;;34.35;;
63902;SDS011;50072;50.678;13.938;2024-03-02T05:41:14;91.88;;;35.17;;
63902;SDS011;50072;50.678;13.938;2024-03-02T05:43:40;85.85;;;32.65;;
63902;SDS011;50072;50.678;13.938;2024-03-02T05:46:07;88.90;;;32.42;;
63902;SDS011;50072;50.678;13.938;2024-03-02T05:48:35;87.90;;;32.15;;
63902;SDS011;50072;50.678;13.938;2024-03-02T05:51:01;85.63;;;31.25;;
63902;SDS011;50072;50.678;13.938;2024-03-02T05:53:27;88.15;;;31.95;;
63902;SDS011;50072;50.678;13.938;2024-03-02T05:55:53;83.13;;;30.70;;
63902;SDS011;50072;50.678;13.938;2024-03-02T05:58:24;85.03;;;31.60;;
63902;SDS011;50072;50.678;13.938;2024-03-02T06:01:04;88.20;;;31.75;;
63902;SDS011;50072;50.678;13.938;2024-03-02T06:03:31;96.03;;;33.85;;
63902;SDS011;50072;50.678;13.938;2024-03-02T06:05:58;115.00;;;38.53;;
63902;SDS011;50072;50.678;13.938;2024-03-02T06:08:24;92.78;;;35.00;;
63902;SDS011;50072;50.678;13.938;2024-03-02T06:10:51;102.13;;;34.55;;
63902;SDS011;50072;50.678;13.938;2024-03-02T06:13:18;96.85;;;35.40;;
63902;SDS011;50072;50.678;13.938;2024-03-02T06:15:43;95.05;;;35.45;;
63902;SDS011;50072;50.678;13.938;2024-03-02T06:18:09;97.10;;;32.78;;
63902;SDS011;50072;50.678;13.938;2024-03-02T06:20:36;94.47;;;33.95;;
63902;SDS011;50072;50.678;13.938;2024-03-02T06:23:04;94.03;;;32.30;;
63902;SDS011;50072;50.678;13.938;2024-03-02T06:25:32;97.72;;;32.25;;
63902;SDS011;50072;50.678;13.938;2024-03-02T06:27:58;99.05;;;32.10;;
63902;SDS011;50072;50.678;13.938;2024-03-02T06:30:26;95.85;;;30.75;;
63902;SDS011;50072;50.678;13.938;2024-03-02T06:32:52;106.10;;;32.72;;
63902;SDS011;50072;50.678;13.938;2024-03-02T06:35:19;108.03;;;33.97;;
63902;SDS011;50072;50.678;13.938;2024-03-02T06:37:45;104.85;;;35.53;;
63902;SDS011;50072;50.678;13.938;2024-03-02T06:40:12;101.45;;;34.70;;
63902;SDS011;50072;50.678;13.938;2024-03-02T06:42:38;104.63;;;34.00;;
63902;SDS011;50072;50.678;13.938;2024-03-02T06:45:05;92.93;;;33.58;;
63902;SDS011;50072;50.678;13.938;2024-03-02T06:47:32;104.53;;;33.65;;
63902;SDS011;50072;50.678;13.938;2024-03-02T06:49:59;108.75;;;35.80;;
63902;SDS011;50072;50.678;13.938;2024-03-02T06:52:25;96.10;;;35.05;;
63902;SDS011;50072;50.678;13.938;2024-03-02T06:54:52;107.82;;;35.45;;
63902;SDS011;50072;50.678;13.938;2024-03-02T06:57:20;102.07;;;33.40;;
63902;SDS011;50072;50.678;13.938;2024-03-02T06:59:46;97.07;;;34.38;;
63902;SDS011;50072;50.678;13.938;2024-03-02T07:02:15;89.90;;;30.98;;
63902;SDS011;50072;50.678;13.938;2024-03-02T07:04:42;89.57;;;31.10;;
63902;SDS011;50072;50.678;13.938;2024-03-02T07:07:10;91.82;;;32.08;;
63902;SDS011;50072;50.678;13.938;2024-03-02T07:09:38;98.97;;;32.00;;
63902;SDS011;50072;50.678;13.938;2024-03-02T07:12:06;93.90;;;31.92;;
63902;SDS011;50072;50.678;13.938;2024-03-02T07:14:32;102.57;;;34.70;;
63902;SDS011;50072;50.678;13.938;2024-03-02T07:17:19;99.57;;;34.65;;
63902;SDS011;50072;50.678;13.938;2024-03-02T07:19:50;99.05;;;35.65;;
63902;SDS011;50072;50.678;13.938;2024-03-02T07:22:15;107.93;;;33.70;;
63902;SDS011;50072;50.678;13.938;2024-03-02T07:24:43;102.10;;;31.83;;
63902;SDS011;50072;50.678;13.938;2024-03-02T07:27:13;96.47;;;29.88;;
63902;SDS011;50072;50.678;13.938;2024-03-02T07:29:40;88.03;;;29.63;;
63902;SDS011;50072;50.678;13.938;2024-03-02T07:32:09;95.00;;;29.75;;
63902;SDS011;50072;50.678;13.938;2024-03-02T07:34:36;87.45;;;29.15;;
63902;SDS011;50072;50.678;13.938;2024-03-02T07:37:05;93.32;;;29.10;;
63902;SDS011;50072;50.678;13.938;2024-03-02T07:39:33;98.30;;;29.08;;
63902;SDS011;50072;50.678;13.938;2024-03-02T07:41:59;96.75;;;31.75;;
63902;SDS011;50072;50.678;13.938;2024-03-02T07:44:26;85.88;;;28.65;;
63902;SDS011;50072;50.678;13.938;2024-03-02T07:46:52;87.35;;;28.92;;
63902;SDS011;50072;50.678;13.938;2024-03-02T07:49:20;97.20;;;32.78;;
63902;SDS011;50072;50.678;13.938;2024-03-02T07:51:46;90.63;;;29.65;;
63902;SDS011;50072;50.678;13.938;2024-03-02T07:54:14;90.57;;;30.17;;
63902;SDS011;50072;50.678;13.938;2024-03-02T07:56:42;95.97;;;32.38;;
63902;SDS011;50072;50.678;13.938;2024-03-02T07:59:09;87.50;;;29.50;;
63902;SDS011;50072;50.678;13.938;2024-03-02T08:01:37;90.75;;;31.30;;
63902;SDS011;50072;50.678;13.938;2024-03-02T08:04:04;96.95;;;34.05;;
63902;SDS011;50072;50.678;13.938;2024-03-02T08:06:30;102.38;;;33.83;;
63902;SDS011;50072;50.678;13.938;2024-03-02T08:08:58;96.10;;;32.55;;
63902;SDS011;50072;50.678;13.938;2024-03-02T08:11:26;90.03;;;29.27;;
63902;SDS011;50072;50.678;13.938;2024-03-02T08:13:53;83.40;;;29.38;;
63902;SDS011;50072;50.678;13.938;2024-03-02T08:16:22;83.13;;;28.17;;
63902;SDS011;50072;50.678;13.938;2024-03-02T08:18:51;84.22;;;27.65;;
63902;SDS011;50072;50.678;13.938;2024-03-02T08:21:19;93.15;;;30.15;;
63902;SDS011;50072;50.678;13.938;2024-03-02T08:23:46;80.40;;;27.63;;
63902;SDS011;50072;50.678;13.938;2024-03-02T08:26:12;81.03;;;27.80;;
63902;SDS011;50072;50.678;13.938;2024-03-02T08:28:38;75.82;;;26.77;;
63902;SDS011;50072;50.678;13.938;2024-03-02T08:31:07;102.85;;;33.60;;
63902;SDS011;50072;50.678;13.938;2024-03-02T08:33:34;100.60;;;37.00;;
63902;SDS011;50072;50.678;13.938;2024-03-02T08:36:01;101.25;;;33.88;;
63902;SDS011;50072;50.678;13.938;2024-03-02T08:38:27;110.43;;;37.25;;
63902;SDS011;50072;50.678;13.938;2024-03-02T08:40:54;111.35;;;36.75;;
63902;SDS011;50072;50.678;13.938;2024-03-02T08:43:20;93.57;;;30.90;;
63902;SDS011;50072;50.678;13.938;2024-03-02T08:45:48;96.88;;;34.25;;
63902;SDS011;50072;50.678;13.938;2024-03-02T08:48:14;105.80;;;33.92;;
63902;SDS011;50072;50.678;13.938;2024-03-02T08:50:40;120.50;;;40.85;;
63902;SDS011;50072;50.678;13.938;2024-03-02T08:53:06;87.80;;;31.08;;
63902;SDS011;50072;50.678;13.938;2024-03-02T08:55:34;89.53;;;29.52;;
63902;SDS011;50072;50.678;13.938;2024-03-02T08:58:00;87.72;;;29.45;;
63902;SDS011;50072;50.678;13.938;2024-03-02T09:00:28;85.53;;;29.25;;
63902;SDS011;50072;50.678;13.938;2024-03-02T09:02:54;81.72;;;28.73;;
63902;SDS011;50072;50.678;13.938;2024-03-02T09:05:21;89.72;;;30.10;;
63902;SDS011;50072;50.678;13.938;2024-03-02T09:07:47;80.95;;;28.40;;
63902;SDS011;50072;50.678;13.938;2024-03-02T09:10:14;81.57;;;26.70;;
63902;SDS011;50072;50.678;13.938;2024-03-02T09:12:40;79.75;;;29.15;;
63902;SDS011;50072;50.678;13.938;2024-03-02T09:15:08;73.47;;;25.83;;
63902;SDS011;50072;50.678;13.938;2024-03-02T09:17:34;78.13;;;27.02;;
63902;SDS011;50072;50.678;13.938;2024-03-02T09:20:00;68.70;;;25.73;;
63902;SDS011;50072;50.678;13.938;2024-03-02T09:22:26;61.88;;;24.65;;
63902;SDS011;50072;50.678;13.938;2024-03-02T09:24:52;77.43;;;27.25;;
63902;SDS011;50072;50.678;13.938;2024-03-02T09:27:18;83.28;;;27.60;;
63902;SDS011;50072;50.678;13.938;2024-03-02T09:29:44;65.30;;;26.02;;
63902;SDS011;50072;50.678;13.938;2024-03-02T09:32:12;94.82;;;32.42;;
63902;SDS011;50072;50.678;13.938;2024-03-02T09:34:41;77.43;;;27.67;;
63902;SDS011;50072;50.678;13.938;2024-03-02T09:37:08;77.53;;;27.20;;
63902;SDS011;50072;50.678;13.938;2024-03-02T09:39:37;81.70;;;30.13;;
63902;SDS011;50072;50.678;13.938;2024-03-02T09:42:04;99.53;;;33.28;;
63902;SDS011;50072;50.678;13.938;2024-03-02T09:44:31;72.13;;;26.52;;
63902;SDS011;50072;50.678;13.938;2024-03-02T09:46:58;71.22;;;26.50;;
63902;SDS011;50072;50.678;13.938;2024-03-02T09:49:24;76.80;;;27.42;;
63902;SDS011;50072;50.678;13.938;2024-03-02T09:51:50;70.85;;;25.75;;
63902;SDS011;50072;50.678;13.938;2024-03-02T09:54:17;69.35;;;27.08;;
63902;SDS011;50072;50.678;13.938;2024-03-02T09:56:44;76.00;;;27.10;;
63902;SDS011;50072;50.678;13.938;2024-03-02T09:59:10;80.13;;;30.05;;
63902;SDS011;50072;50.678;13.938;2024-03-02T10:01:36;85.65;;;30.33;;
63902;SDS011;50072;50.678;13.938;2024-03-02T10:04:04;74.20;;;28.13;;
63902;SDS011;50072;50.678;13.938;2024-03-02T10:06:31;65.72;;;25.38;;
63902;SDS011;50072;50.678;13.938;2024-03-02T10:08:58;70.22;;;27.20;;
63902;SDS011;50072;50.678;13.938;2024-03-02T10:11:28;71.72;;;25.55;;
63902;SDS011;50072;50.678;13.938;2024-03-02T10:14:10;69.75;;;26.45;;
63902;SDS011;50072;50.678;13.938;2024-03-02T10:19:19;64.47;;;24.48;;
63902;SDS011;50072;50.678;13.938;2024-03-02T10:21:50;60.15;;;25.27;;
63902;SDS011;50072;50.678;13.938;2024-03-02T10:24:18;67.18;;;26.23;;
63902;SDS011;50072;50.678;13.938;2024-03-02T10:26:45;61.55;;;25.48;;
63902;SDS011;50072;50.678;13.938;2024-03-02T10:29:11;69.72;;;26.77;;
63902;SDS011;50072;50.678;13.938;2024-03-02T10:31:40;62.15;;;25.58;;
63902;SDS011;50072;50.678;13.938;2024-03-02T10:34:07;64.43;;;26.40;;
63902;SDS011;50072;50.678;13.938;2024-03-02T10:36:36;60.50;;;25.85;;
63902;SDS011;50072;50.678;13.938;2024-03-02T10:39:03;63.75;;;27.05;;
63902;SDS011;50072;50.678;13.938;2024-03-02T10:41:32;57.72;;;24.38;;
63902;SDS011;50072;50.678;13.938;2024-03-02T10:44:02;67.05;;;26.15;;
63902;SDS011;50072;50.678;13.938;2024-03-02T10:46:29;58.88;;;24.85;;
63902;SDS011;50072;50.678;13.938;2024-03-02T10:49:05;64.38;;;25.45;;
63902;SDS011;50072;50.678;13.938;2024-03-02T10:51:32;183.13;;;62.25;;
63902;SDS011;50072;50.678;13.938;2024-03-02T10:54:01;66.55;;;26.83;;
63902;SDS011;50072;50.678;13.938;2024-03-02T10:56:31;61.50;;;24.05;;
63902;SDS011;50072;50.678;13.938;2024-03-02T10:59:14;66.10;;;25.50;;
63902;SDS011;50072;50.678;13.938;2024-03-02T11:01:48;59.05;;;24.63;;
63902;SDS011;50072;50.678;13.938;2024-03-02T11:04:15;66.10;;;26.17;;
63902;SDS011;50072;50.678;13.938;2024-03-02T11:06:48;62.15;;;24.30;;
63902;SDS011;50072;50.678;13.938;2024-03-02T11:09:16;96.75;;;38.38;;
63902;SDS011;50072;50.678;13.938;2024-03-02T11:11:45;65.97;;;26.48;;
63902;SDS011;50072;50.678;13.938;2024-03-02T11:14:23;58.80;;;23.33;;
63902;SDS011;50072;50.678;13.938;2024-03-02T11:16:53;54.70;;;22.70;;
63902;SDS011;50072;50.678;13.938;2024-03-02T11:19:20;61.17;;;26.00;;
63902;SDS011;50072;50.678;13.938;2024-03-02T11:21:47;60.53;;;23.95;;
63902;SDS011;50072;50.678;13.938;2024-03-02T11:26:58;61.10;;;26.85;;
63902;SDS011;50072;50.678;13.938;2024-03-02T11:32:06;52.30;;;20.40;;
63902;SDS011;50072;50.678;13.938;2024-03-02T11:34:41;50.78;;;21.75;;
63902;SDS011;50072;50.678;13.938;2024-03-02T11:37:12;51.45;;;21.08;;
63902;SDS011;50072;50.678;13.938;2024-03-02T11:39:42;58.25;;;22.58;;
63902;SDS011;50072;50.678;13.938;2024-03-02T11:42:15;49.30;;;22.33;;
63902;SDS011;50072;50.678;13.938;2024-03-02T11:44:45;56.40;;;22.33;;
63902;SDS011;50072;50.678;13.938;2024-03-02T11:47:15;50.83;;;22.38;;
63902;SDS011;50072;50.678;13.938;2024-03-02T11:49:46;50.67;;;21.15;;
63902;SDS011;50072;50.678;13.938;2024-03-02T11:52:14;51.00;;;21.30;;
63902;SDS011;50072;50.678;13.938;2024-03-02T11:54:44;58.47;;;22.52;;
63902;SDS011;50072;50.678;13.938;2024-03-02T11:57:27;52.70;;;22.25;;
63902;SDS011;50072;50.678;13.938;2024-03-02T11:59:58;62.90;;;24.80;;
63902;SDS011;50072;50.678;13.938;2024-03-02T12:02:24;70.80;;;27.67;;
63902;SDS011;50072;50.678;13.938;2024-03-02T12:04:50;56.58;;;23.88;;
63902;SDS011;50072;50.678;13.938;2024-03-02T12:07:26;61.35;;;23.80;;
63902;SDS011;50072;50.678;13.938;2024-03-02T12:10:02;62.03;;;26.30;;
63902;SDS011;50072;50.678;13.938;2024-03-02T12:12:30;68.35;;;26.33;;
63902;SDS011;50072;50.678;13.938;2024-03-02T12:14:56;52.05;;;21.83;;
63902;SDS011;50072;50.678;13.938;2024-03-02T12:17:22;50.58;;;21.35;;
63902;SDS011;50072;50.678;13.938;2024-03-02T12:19:49;50.22;;;21.13;;
63902;SDS011;50072;50.678;13.938;2024-03-02T12:22:16;53.95;;;21.80;;
63902;SDS011;50072;50.678;13.938;2024-03-02T12:24:44;51.95;;;21.88;;
63902;SDS011;50072;50.678;13.938;2024-03-02T12:27:11;56.10;;;22.05;;
63902;SDS011;50072;50.678;13.938;2024-03-02T12:29:38;53.50;;;22.23;;
63902;SDS011;50072;50.678;13.938;2024-03-02T12:32:05;43.17;;;19.95;;
63902;SDS011;50072;50.678;13.938;2024-03-02T12:34:32;52.92;;;20.95;;
63902;SDS011;50072;50.678;13.938;2024-03-02T12:37:00;69.38;;;30.02;;
63902;SDS011;50072;50.678;13.938;2024-03-02T12:39:26;93.20;;;49.42;;
63902;SDS011;50072;50.678;13.938;2024-03-02T12:41:52;53.95;;;24.75;;
63902;SDS011;50072;50.678;13.938;2024-03-02T12:44:19;49.08;;;20.67;;
63902;SDS011;50072;50.678;13.938;2024-03-02T12:46:46;46.78;;;20.67;;
63902;SDS011;50072;50.678;13.938;2024-03-02T12:49:14;69.95;;;29.20;;
63902;SDS011;50072;50.678;13.938;2024-03-02T12:51:55;49.80;;;21.45;;
63902;SDS011;50072;50.678;13.938;2024-03-02T12:54:29;66.18;;;28.40;;
63902;SDS011;50072;50.678;13.938;2024-03-02T12:57:00;49.33;;;22.20;;
63902;SDS011;50072;50.678;13.938;2024-03-02T12:59:31;48.72;;;21.23;;
63902;SDS011;50072;50.678;13.938;2024-03-02T13:02:01;55.00;;;22.85;;
63902;SDS011;50072;50.678;13.938;2024-03-02T13:04:28;54.15;;;22.10;;
63902;SDS011;50072;50.678;13.938;2024-03-02T13:06:55;53.92;;;22.23;;
63902;SDS011;50072;50.678;13.938;2024-03-02T13:09:28;52.95;;;21.95;;
63902;SDS011;50072;50.678;13.938;2024-03-02T13:12:00;44.15;;;19.00;;
63902;SDS011;50072;50.678;13.938;2024-03-02T13:14:32;42.42;;;19.30;;
63902;SDS011;50072;50.678;13.938;2024-03-02T13:16:59;43.63;;;18.10;;
63902;SDS011;50072;50.678;13.938;2024-03-02T13:19:27;41.38;;;17.83;;
63902;SDS011;50072;50.678;13.938;2024-03-02T13:21:57;41.53;;;17.95;;
63902;SDS011;50072;50.678;13.938;2024-03-02T13:24:24;42.63;;;17.45;;
63902;SDS011;50072;50.678;13.938;2024-03-02T13:29:29;39.33;;;18.10;;
63902;SDS011;50072;50.678;13.938;2024-03-02T13:31:56;60.13;;;27.52;;
63902;SDS011;50072;50.678;13.938;2024-03-02T13:34:25;40.65;;;18.58;;
63902;SDS011;50072;50.678;13.938;2024-03-02T13:36:51;41.65;;;18.42;;
63902;SDS011;50072;50.678;13.938;2024-03-02T13:39:18;44.13;;;19.83;;
63902;SDS011;50072;50.678;13.938;2024-03-02T13:41:44;42.30;;;18.73;;
63902;SDS011;50072;50.678;13.938;2024-03-02T13:44:20;40.50;;;16.00;;
63902;SDS011;50072;50.678;13.938;2024-03-02T13:46:47;35.63;;;14.82;;
63902;SDS011;50072;50.678;13.938;2024-03-02T13:49:14;36.63;;;17.05;;
63902;SDS011;50072;50.678;13.938;2024-03-02T13:51:42;38.83;;;17.05;;
63902;SDS011;50072;50.678;13.938;2024-03-02T13:54:14;35.28;;;16.30;;
63902;SDS011;50072;50.678;13.938;2024-03-02T13:56:40;32.78;;;15.45;;
63902;SDS011;50072;50.678;13.938;2024-03-02T13:59:08;34.55;;;14.07;;
63902;SDS011;50072;50.678;13.938;2024-03-02T14:01:34;29.13;;;14.57;;
63902;SDS011;50072;50.678;13.938;2024-03-02T14:04:01;32.30;;;13.90;;
63902;SDS011;50072;50.678;13.938;2024-03-02T14:06:34;40.53;;;17.23;;
63902;SDS011;50072;50.678;13.938;2024-03-02T14:09:01;36.92;;;16.42;;
63902;SDS011;50072;50.678;13.938;2024-03-02T14:11:29;32.25;;;13.93;;
63902;SDS011;50072;50.678;13.938;2024-03-02T14:13:58;33.55;;;15.60;;
63902;SDS011;50072;50.678;13.938;2024-03-02T14:16:23;36.90;;;16.60;;
63902;SDS011;50072;50.678;13.938;2024-03-02T14:18:49;38.45;;;16.35;;
63902;SDS011;50072;50.678;13.938;2024-03-02T14:21:15;27.67;;;14.45;;
63902;SDS011;50072;50.678;13.938;2024-03-02T14:23:43;34.78;;;14.68;;
63902;SDS011;50072;50.678;13.938;2024-03-02T14:26:09;33.95;;;13.38;;
63902;SDS011;50072;50.678;13.938;2024-03-02T14:28:37;25.23;;;12.55;;
63902;SDS011;50072;50.678;13.938;2024-03-02T14:31:05;38.17;;;15.73;;
63902;SDS011;50072;50.678;13.938;2024-03-02T14:33:31;36.67;;;16.05;;
63902;SDS011;50072;50.678;13.938;2024-03-02T14:35:57;30.92;;;13.95;;
63902;SDS011;50072;50.678;13.938;2024-03-02T14:38:23;30.10;;;13.13;;
63902;SDS011;50072;50.678;13.938;2024-03-02T14:40:49;34.83;;;14.57;;
63902;SDS011;50072;50.678;13.938;2024-03-02T14:46:03;28.63;;;12.50;;
63902;SDS011;50072;50.678;13.938;2024-03-02T14:48:36;44.03;;;17.20;;
63902;SDS011;50072;50.678;13.938;2024-03-02T14:51:09;57.78;;;22.65;;